sensor_id;sensor_type;location;lat;lon;timestamp;pressure;altitude;pressure_sealevel;temperature;humidity
21828;BME280;11076;47.942;11.804;2023-01-27T00:01:34;94316.88;;;-1.50;100.00
21828;BME280;11076;47.942;11.804;2023-01-27T00:06:37;94319.13;;;-1.55;100.00
21828;BME280;11076;47.942;11.804;2023-01-27T00:11:39;94312.22;;;-1.56;100.00
21828;BME280;11076;47.942;11.804;2023-01-27T00:17:00;94320.03;;;-1.46;100.00
21828;BME280;11076;47.942;11.804;2023-01-27T00:22:03;94320.81;;;-1.64;100.00
21828;BME280;11076;47.942;11.804;2023-01-27T00:27:24;94317.75;;;-1.59;100.00
21828;BME280;11076;47.942;11.804;2023-01-27T00:32:28;94305.97;;;-1.73;100.00
21828;BME280;11076;47.942;11.804;2023-01-27T00:37:49;94300.47;;;-1.80;100.00
21828;BME280;11076;47.942;11.804;2023-01-27T00:42:53;94293.59;;;-1.81;100.00
21828;BME280;11076;47.942;11.804;2023-01-27T00:47:57;94296.50;;;-1.84;100.00
21828;BME280;11076;47.942;11.804;2023-01-27T00:53:00;94298.81;;;-1.81;100.00
21828;BME280;11076;47.942;11.804;2023-01-27T00:58:03;94301.22;;;-1.69;100.00
21828;BME280;11076;47.942;11.804;2023-01-27T01:03:06;94306.38;;;-1.77;100.00
21828;BME280;11076;47.942;11.804;2023-01-27T01:08:09;94309.91;;;-1.87;100.00
21828;BME280;11076;47.942;11.804;2023-01-27T01:13:11;94315.97;;;-1.86;100.00
21828;BME280;11076;47.942;11.804;2023-01-27T01:18:15;94318.63;;;-1.96;100.00
21828;BME280;11076;47.942;11.804;2023-01-27T01:23:18;94328.13;;;-1.95;100.00
21828;BME280;11076;47.942;11.804;2023-01-27T01:28:20;94329.38;;;-1.99;100.00
21828;BME280;11076;47.942;11.804;2023-01-27T01:33:24;94316.50;;;-1.83;100.00
21828;BME280;11076;47.942;11.804;2023-01-27T01:38:32;94315.22;;;-1.78;100.00
21828;BME280;11076;47.942;11.804;2023-01-27T01:43:34;94309.59;;;-1.84;100.00
21828;BME280;11076;47.942;11.804;2023-01-27T01:59:16;94296.06;;;-1.79;100.00
21828;BME280;11076;47.942;11.804;2023-01-27T02:04:22;94289.78;;;-1.96;100.00
21828;BME280;11076;47.942;11.804;2023-01-27T02:09:27;94285.31;;;-1.86;100.00
21828;BME280;11076;47.942;11.804;2023-01-27T02:14:30;94285.03;;;-1.83;100.00
21828;BME280;11076;47.942;11.804;2023-01-27T02:30:32;94288.56;;;-2.02;100.00
21828;BME280;11076;47.942;11.804;2023-01-27T02:35:40;94288.66;;;-1.93;100.00
21828;BME280;11076;47.942;11.804;2023-01-27T02:40:48;94297.81;;;-2.07;100.00
21828;BME280;11076;47.942;11.804;2023-01-27T02:45:53;94291.09;;;-2.10;100.00
21828;BME280;11076;47.942;11.804;2023-01-27T02:50:56;94285.13;;;-2.02;100.00
21828;BME280;11076;47.942;11.804;2023-01-27T02:56:00;94288.91;;;-2.14;100.00
21828;BME280;11076;47.942;11.804;2023-01-27T03:01:03;94289.47;;;-2.11;100.00
21828;BME280;11076;47.942;11.804;2023-01-27T03:06:11;94289.16;;;-2.08;100.00
21828;BME280;11076;47.942;11.804;2023-01-27T03:11:14;94275.09;;;-2.07;100.00
21828;BME280;11076;47.942;11.804;2023-01-27T03:16:37;94282.34;;;-1.91;100.00
21828;BME280;11076;47.942;11.804;2023-01-27T03:21:58;94271.00;;;-1.91;100.00
21828;BME280;11076;47.942;11.804;2023-01-27T03:27:05;94274.97;;;-2.15;100.00
21828;BME280;11076;47.942;11.804;2023-01-27T03:32:30;94269.41;;;-2.02;100.00
21828;BME280;11076;47.942;11.804;2023-01-27T03:38:12;94270.81;;;-2.08;100.00
21828;BME280;11076;47.942;11.804;2023-01-27T03:43:33;94265.72;;;-2.09;100.00
21828;BME280;11076;47.942;11.804;2023-01-27T03:48:55;94264.06;;;-2.10;100.00
21828;BME280;11076;47.942;11.804;2023-01-27T03:53:57;94259.78;;;-2.11;100.00
21828;BME280;11076;47.942;11.804;2023-01-27T03:59:02;94261.47;;;-2.10;100.00
21828;BME280;11076;47.942;11.804;2023-01-27T04:04:05;94257.88;;;-2.19;100.00
21828;BME280;11076;47.942;11.804;2023-01-27T04:09:31;94265.34;;;-2.14;100.00
21828;BME280;11076;47.942;11.804;2023-01-27T04:14:37;94270.84;;;-2.17;100.00
21828;BME280;11076;47.942;11.804;2023-01-27T04:19:40;94266.00;;;-2.12;100.00
21828;BME280;11076;47.942;11.804;2023-01-27T04:24:43;94267.25;;;-2.07;100.00
21828;BME280;11076;47.942;11.804;2023-01-27T04:29:46;94270.81;;;-2.08;100.00
21828;BME280;11076;47.942;11.804;2023-01-27T04:34:49;94260.34;;;-2.08;100.00
21828;BME280;11076;47.942;11.804;2023-01-27T04:39:51;94263.50;;;-2.04;100.00
21828;BME280;11076;47.942;11.804;2023-01-27T04:44:53;94263.50;;;-2.04;100.00
21828;BME280;11076;47.942;11.804;2023-01-27T04:49:56;94274.75;;;-1.94;100.00
21828;BME280;11076;47.942;11.804;2023-01-27T04:54:58;94274.75;;;-1.94;100.00
21828;BME280;11076;47.942;11.804;2023-01-27T05:00:03;94275.44;;;-1.92;100.00
21828;BME280;11076;47.942;11.804;2023-01-27T05:05:07;94272.56;;;-1.98;100.00
21828;BME280;11076;47.942;11.804;2023-01-27T05:10:10;94280.66;;;-1.92;100.00
21828;BME280;11076;47.942;11.804;2023-01-27T05:15:12;94281.44;;;-1.82;100.00
21828;BME280;11076;47.942;11.804;2023-01-27T05:20:15;94282.03;;;-1.88;100.00
21828;BME280;11076;47.942;11.804;2023-01-27T05:25:18;94281.22;;;-1.88;100.00
21828;BME280;11076;47.942;11.804;2023-01-27T05:30:20;94290.56;;;-1.86;100.00
21828;BME280;11076;47.942;11.804;2023-01-27T05:35:23;94294.16;;;-1.87;100.00
21828;BME280;11076;47.942;11.804;2023-01-27T05:40:26;94302.22;;;-1.98;100.00
21828;BME280;11076;47.942;11.804;2023-01-27T05:45:28;94310.94;;;-2.07;100.00
21828;BME280;11076;47.942;11.804;2023-01-27T05:50:31;94308.81;;;-1.94;100.00
21828;BME280;11076;47.942;11.804;2023-01-27T05:55:33;94323.28;;;-1.90;100.00
21828;BME280;11076;47.942;11.804;2023-01-27T06:00:36;94317.09;;;-1.89;100.00
21828;BME280;11076;47.942;11.804;2023-01-27T06:05:38;94318.34;;;-1.93;100.00
21828;BME280;11076;47.942;11.804;2023-01-27T06:10:41;94330.88;;;-1.87;100.00
21828;BME280;11076;47.942;11.804;2023-01-27T06:15:45;94335.31;;;-1.97;100.00
21828;BME280;11076;47.942;11.804;2023-01-27T06:20:48;94333.78;;;-2.00;100.00
21828;BME280;11076;47.942;11.804;2023-01-27T06:25:50;94332.69;;;-1.97;100.00
21828;BME280;11076;47.942;11.804;2023-01-27T06:30:52;94329.50;;;-1.91;100.00
21828;BME280;11076;47.942;11.804;2023-01-27T06:36:00;94339.81;;;-1.89;100.00
21828;BME280;11076;47.942;11.804;2023-01-27T06:41:04;94345.31;;;-1.83;100.00
21828;BME280;11076;47.942;11.804;2023-01-27T06:46:06;94354.78;;;-1.72;100.00
21828;BME280;11076;47.942;11.804;2023-01-27T06:51:09;94354.25;;;-1.75;100.00
21828;BME280;11076;47.942;11.804;2023-01-27T06:56:11;94349.72;;;-1.55;100.00
21828;BME280;11076;47.942;11.804;2023-01-27T07:01:14;94358.28;;;-1.53;100.00
21828;BME280;11076;47.942;11.804;2023-01-27T07:06:17;94351.22;;;-1.43;100.00
21828;BME280;11076;47.942;11.804;2023-01-27T07:11:20;94354.66;;;-1.43;100.00
21828;BME280;11076;47.942;11.804;2023-01-27T07:16:23;94340.56;;;-1.42;100.00
21828;BME280;11076;47.942;11.804;2023-01-27T07:21:26;94343.56;;;-1.36;100.00
21828;BME280;11076;47.942;11.804;2023-01-27T07:26:28;94342.44;;;-1.34;100.00
21828;BME280;11076;47.942;11.804;2023-01-27T07:31:32;94344.28;;;-1.16;100.00
21828;BME280;11076;47.942;11.804;2023-01-27T07:36:35;94349.75;;;-1.10;100.00
21828;BME280;11076;47.942;11.804;2023-01-27T07:41:37;94356.06;;;-1.03;100.00
21828;BME280;11076;47.942;11.804;2023-01-27T07:46:40;94357.63;;;-0.92;100.00
21828;BME280;11076;47.942;11.804;2023-01-27T07:51:42;94363.47;;;-0.80;100.00
21828;BME280;11076;47.942;11.804;2023-01-27T07:56:45;94366.84;;;-0.70;100.00
21828;BME280;11076;47.942;11.804;2023-01-27T08:01:47;94374.59;;;-0.68;100.00
21828;BME280;11076;47.942;11.804;2023-01-27T08:06:50;94371.59;;;-0.73;100.00
21828;BME280;11076;47.942;11.804;2023-01-27T08:11:52;94366.41;;;-0.65;100.00
21828;BME280;11076;47.942;11.804;2023-01-27T08:16:55;94363.41;;;-0.52;100.00
21828;BME280;11076;47.942;11.804;2023-01-27T08:21:57;94373.00;;;-0.43;100.00
21828;BME280;11076;47.942;11.804;2023-01-27T08:26:59;94368.88;;;-0.28;100.00
21828;BME280;11076;47.942;11.804;2023-01-27T08:32:02;94354.28;;;0.04;100.00
21828;BME280;11076;47.942;11.804;2023-01-27T08:37:05;94347.22;;;0.39;100.00
21828;BME280;11076;47.942;11.804;2023-01-27T08:42:08;94367.09;;;0.68;100.00
21828;BME280;11076;47.942;11.804;2023-01-27T08:47:10;94376.03;;;0.14;97.44
21828;BME280;11076;47.942;11.804;2023-01-27T08:52:13;94384.28;;;-0.07;98.29
21828;BME280;11076;47.942;11.804;2023-01-27T08:57:15;94392.25;;;0.10;99.05
21828;BME280;11076;47.942;11.804;2023-01-27T09:02:18;94392.53;;;0.25;98.42
21828;BME280;11076;47.942;11.804;2023-01-27T09:07:23;94405.66;;;-0.02;96.41
21828;BME280;11076;47.942;11.804;2023-01-27T09:12:26;94397.44;;;-0.25;94.78
21828;BME280;11076;47.942;11.804;2023-01-27T09:17:28;94400.75;;;-0.23;95.86
21828;BME280;11076;47.942;11.804;2023-01-27T09:22:31;94389.31;;;-0.13;96.82
21828;BME280;11076;47.942;11.804;2023-01-27T09:27:34;94390.66;;;0.17;96.79
21828;BME280;11076;47.942;11.804;2023-01-27T09:32:41;94386.69;;;0.13;96.44
21828;BME280;11076;47.942;11.804;2023-01-27T09:37:48;94407.25;;;0.44;96.83
21828;BME280;11076;47.942;11.804;2023-01-27T09:43:03;94410.78;;;0.61;96.92
21828;BME280;11076;47.942;11.804;2023-01-27T09:48:31;94400.75;;;0.56;96.34
21828;BME280;11076;47.942;11.804;2023-01-27T10:31:27;94411.44;;;0.02;96.60
21828;BME280;11076;47.942;11.804;2023-01-27T10:36:45;94422.41;;;0.24;96.93
21828;BME280;11076;47.942;11.804;2023-01-27T10:52:41;94414.34;;;0.51;95.92
21828;BME280;11076;47.942;11.804;2023-01-27T10:57:54;94409.09;;;0.51;96.35
21828;BME280;11076;47.942;11.804;2023-01-27T11:03:09;94411.16;;;0.39;95.05
21828;BME280;11076;47.942;11.804;2023-01-27T11:08:29;94404.91;;;0.67;93.73
21828;BME280;11076;47.942;11.804;2023-01-27T11:13:34;94402.72;;;0.54;93.62
21828;BME280;11076;47.942;11.804;2023-01-27T11:18:37;94402.84;;;0.44;92.53
21828;BME280;11076;47.942;11.804;2023-01-27T11:23:43;94394.56;;;0.39;92.22
21828;BME280;11076;47.942;11.804;2023-01-27T11:29:20;94400.03;;;0.80;93.10
21828;BME280;11076;47.942;11.804;2023-01-27T11:39:37;94402.19;;;0.50;94.20
21828;BME280;11076;47.942;11.804;2023-01-27T11:44:41;94404.06;;;0.32;93.76
21828;BME280;11076;47.942;11.804;2023-01-27T11:49:47;94405.81;;;0.23;94.32
21828;BME280;11076;47.942;11.804;2023-01-27T12:00:18;94401.22;;;-0.01;93.89
21828;BME280;11076;47.942;11.804;2023-01-27T12:05:37;94403.56;;;0.02;93.51
21828;BME280;11076;47.942;11.804;2023-01-27T12:10:42;94391.69;;;-0.02;94.71
21828;BME280;11076;47.942;11.804;2023-01-27T12:15:54;94394.88;;;-0.16;93.52
21828;BME280;11076;47.942;11.804;2023-01-27T12:21:03;94399.88;;;-0.49;96.12
21828;BME280;11076;47.942;11.804;2023-01-27T12:26:09;94402.38;;;-0.66;97.75
21828;BME280;11076;47.942;11.804;2023-01-27T12:31:18;94390.47;;;-0.70;99.26
21828;BME280;11076;47.942;11.804;2023-01-27T12:36:22;94383.50;;;-0.25;96.09
21828;BME280;11076;47.942;11.804;2023-01-27T12:41:33;94383.25;;;-0.14;95.64
21828;BME280;11076;47.942;11.804;2023-01-27T12:46:39;94380.09;;;0.35;95.87
21828;BME280;11076;47.942;11.804;2023-01-27T12:51:50;94371.06;;;0.80;93.48
21828;BME280;11076;47.942;11.804;2023-01-27T12:56:59;94365.03;;;0.53;89.42
21828;BME280;11076;47.942;11.804;2023-01-27T13:02:23;94374.88;;;0.17;91.09
21828;BME280;11076;47.942;11.804;2023-01-27T13:07:29;94374.34;;;0.39;92.21
21828;BME280;11076;47.942;11.804;2023-01-27T13:12:48;94370.81;;;0.23;91.36
21828;BME280;11076;47.942;11.804;2023-01-27T13:17:58;94370.25;;;0.11;92.53
21828;BME280;11076;47.942;11.804;2023-01-27T13:28:27;94383.53;;;-0.17;93.62
21828;BME280;11076;47.942;11.804;2023-01-27T13:33:50;94398.59;;;-0.27;93.00
21828;BME280;11076;47.942;11.804;2023-01-27T13:44:28;94392.16;;;-0.69;96.13
21828;BME280;11076;47.942;11.804;2023-01-27T13:49:36;94397.47;;;-0.61;96.33
21828;BME280;11076;47.942;11.804;2023-01-27T13:54:42;94395.38;;;-0.57;97.00
21828;BME280;11076;47.942;11.804;2023-01-27T14:05:00;94400.53;;;-0.29;95.25
21828;BME280;11076;47.942;11.804;2023-01-27T14:10:40;94392.63;;;-0.11;95.66
21828;BME280;11076;47.942;11.804;2023-01-27T14:16:08;94401.38;;;0.24;95.56
21828;BME280;11076;47.942;11.804;2023-01-27T14:21:44;94399.13;;;0.29;95.25
21828;BME280;11076;47.942;11.804;2023-01-27T14:27:13;94410.09;;;-0.02;93.60
21828;BME280;11076;47.942;11.804;2023-01-27T14:37:33;94403.97;;;0.15;93.99
21828;BME280;11076;47.942;11.804;2023-01-27T14:53:12;94412.78;;;0.06;93.87
21828;BME280;11076;47.942;11.804;2023-01-27T14:58:30;94414.47;;;0.15;94.63
21828;BME280;11076;47.942;11.804;2023-01-27T15:03:50;94423.94;;;0.00;93.96
21828;BME280;11076;47.942;11.804;2023-01-27T15:15:18;94432.88;;;-0.29;94.67
21828;BME280;11076;47.942;11.804;2023-01-27T15:25:53;94435.00;;;-0.50;94.85
21828;BME280;11076;47.942;11.804;2023-01-27T15:36:33;94445.72;;;-0.79;96.54
21828;BME280;11076;47.942;11.804;2023-01-27T15:41:49;94439.44;;;-0.96;97.53
21828;BME280;11076;47.942;11.804;2023-01-27T15:46:53;94445.38;;;-0.94;97.67
21828;BME280;11076;47.942;11.804;2023-01-27T15:52:09;94452.06;;;-0.82;98.09
21828;BME280;11076;47.942;11.804;2023-01-27T15:57:30;94456.56;;;-0.92;97.87
21828;BME280;11076;47.942;11.804;2023-01-27T16:02:43;94455.66;;;-1.01;99.08
21828;BME280;11076;47.942;11.804;2023-01-27T16:07:50;94461.75;;;-1.10;98.72
21828;BME280;11076;47.942;11.804;2023-01-27T16:13:17;94458.22;;;-0.91;98.64
21828;BME280;11076;47.942;11.804;2023-01-27T16:18:23;94469.00;;;-1.22;99.31
21828;BME280;11076;47.942;11.804;2023-01-27T16:23:48;94474.25;;;-1.22;99.44
21828;BME280;11076;47.942;11.804;2023-01-27T16:29:02;94477.25;;;-1.17;100.00
21828;BME280;11076;47.942;11.804;2023-01-27T16:34:15;94475.66;;;-1.00;99.95
21828;BME280;11076;47.942;11.804;2023-01-27T16:39:31;94473.84;;;-1.00;99.14
21828;BME280;11076;47.942;11.804;2023-01-27T16:44:42;94468.53;;;-1.17;99.65
21828;BME280;11076;47.942;11.804;2023-01-27T16:49:45;94470.75;;;-1.13;100.00
21828;BME280;11076;47.942;11.804;2023-01-27T16:54:52;94474.28;;;-1.04;99.94
21828;BME280;11076;47.942;11.804;2023-01-27T16:59:57;94474.75;;;-1.09;99.77
21828;BME280;11076;47.942;11.804;2023-01-27T17:05:12;94470.34;;;-1.18;100.00
21828;BME280;11076;47.942;11.804;2023-01-27T17:10:15;94483.88;;;-1.13;100.00
21828;BME280;11076;47.942;11.804;2023-01-27T17:15:35;94484.97;;;-1.15;100.00
21828;BME280;11076;47.942;11.804;2023-01-27T17:20:41;94496.94;;;-1.03;100.00
21828;BME280;11076;47.942;11.804;2023-01-27T17:25:47;94502.44;;;-0.96;100.00
21828;BME280;11076;47.942;11.804;2023-01-27T17:30:51;94507.34;;;-1.11;100.00
21828;BME280;11076;47.942;11.804;2023-01-27T17:35:55;94507.91;;;-1.17;100.00
21828;BME280;11076;47.942;11.804;2023-01-27T17:41:00;94509.47;;;-1.25;100.00
21828;BME280;11076;47.942;11.804;2023-01-27T17:46:24;94514.41;;;-1.22;100.00
21828;BME280;11076;47.942;11.804;2023-01-27T17:51:33;94512.78;;;-1.23;100.00
21828;BME280;11076;47.942;11.804;2023-01-27T17:56:36;94511.84;;;-1.31;100.00
21828;BME280;11076;47.942;11.804;2023-01-27T18:01:39;94515.16;;;-1.29;100.00
21828;BME280;11076;47.942;11.804;2023-01-27T18:06:42;94514.69;;;-1.15;100.00
21828;BME280;11076;47.942;11.804;2023-01-27T18:11:53;94524.09;;;-1.22;100.00
21828;BME280;11076;47.942;11.804;2023-01-27T18:17:04;94525.22;;;-1.25;100.00
21828;BME280;11076;47.942;11.804;2023-01-27T18:22:11;94520.00;;;-1.34;100.00
21828;BME280;11076;47.942;11.804;2023-01-27T18:27:20;94533.09;;;-1.34;100.00
21828;BME280;11076;47.942;11.804;2023-01-27T18:32:23;94536.84;;;-1.37;100.00
21828;BME280;11076;47.942;11.804;2023-01-27T18:37:34;94539.44;;;-1.27;100.00
21828;BME280;11076;47.942;11.804;2023-01-27T18:42:40;94547.25;;;-1.17;100.00
21828;BME280;11076;47.942;11.804;2023-01-27T18:47:43;94544.50;;;-1.16;100.00
21828;BME280;11076;47.942;11.804;2023-01-27T18:52:46;94543.16;;;-1.30;100.00
21828;BME280;11076;47.942;11.804;2023-01-27T18:57:58;94544.81;;;-1.19;100.00
21828;BME280;11076;47.942;11.804;2023-01-27T19:03:00;94538.97;;;-1.13;100.00
21828;BME280;11076;47.942;11.804;2023-01-27T19:08:04;94534.41;;;-1.11;100.00
21828;BME280;11076;47.942;11.804;2023-01-27T19:13:08;94545.72;;;-1.10;100.00
21828;BME280;11076;47.942;11.804;2023-01-27T19:18:20;94548.78;;;-1.15;100.00
21828;BME280;11076;47.942;11.804;2023-01-27T19:23:26;94554.00;;;-1.05;100.00
21828;BME280;11076;47.942;11.804;2023-01-27T19:28:31;94543.41;;;-1.13;100.00
21828;BME280;11076;47.942;11.804;2023-01-27T19:33:34;94548.00;;;-1.25;100.00
21828;BME280;11076;47.942;11.804;2023-01-27T19:38:38;94549.03;;;-1.08;100.00
21828;BME280;11076;47.942;11.804;2023-01-27T19:43:40;94545.00;;;-1.03;100.00
21828;BME280;11076;47.942;11.804;2023-01-27T19:48:43;94548.03;;;-0.97;100.00
21828;BME280;11076;47.942;11.804;2023-01-27T19:53:46;94553.41;;;-0.89;100.00
21828;BME280;11076;47.942;11.804;2023-01-27T19:58:50;94565.41;;;-0.87;100.00
21828;BME280;11076;47.942;11.804;2023-01-27T20:03:54;94555.19;;;-1.00;100.00
21828;BME280;11076;47.942;11.804;2023-01-27T20:08:58;94566.75;;;-1.20;100.00
21828;BME280;11076;47.942;11.804;2023-01-27T20:14:21;94565.31;;;-1.05;100.00
21828;BME280;11076;47.942;11.804;2023-01-27T20:19:27;94573.75;;;-1.01;100.00
21828;BME280;11076;47.942;11.804;2023-01-27T20:24:30;94576.50;;;-1.03;100.00
21828;BME280;11076;47.942;11.804;2023-01-27T20:29:32;94560.94;;;-1.14;100.00
21828;BME280;11076;47.942;11.804;2023-01-27T20:34:42;94566.47;;;-1.17;100.00
21828;BME280;11076;47.942;11.804;2023-01-27T20:39:44;94570.41;;;-1.41;100.00
21828;BME280;11076;47.942;11.804;2023-01-27T20:44:47;94568.34;;;-1.47;100.00
21828;BME280;11076;47.942;11.804;2023-01-27T20:49:50;94576.09;;;-1.55;100.00
21828;BME280;11076;47.942;11.804;2023-01-27T20:54:52;94580.22;;;-1.62;100.00
21828;BME280;11076;47.942;11.804;2023-01-27T20:59:58;94593.91;;;-1.68;100.00
21828;BME280;11076;47.942;11.804;2023-01-27T21:05:01;94586.03;;;-1.68;100.00
21828;BME280;11076;47.942;11.804;2023-01-27T21:10:04;94593.91;;;-1.68;100.00
21828;BME280;11076;47.942;11.804;2023-01-27T21:15:08;94591.00;;;-1.75;100.00
21828;BME280;11076;47.942;11.804;2023-01-27T21:20:11;94595.81;;;-1.70;100.00
21828;BME280;11076;47.942;11.804;2023-01-27T21:25:14;94595.00;;;-1.71;100.00
21828;BME280;11076;47.942;11.804;2023-01-27T21:30:17;94588.34;;;-1.65;100.00
21828;BME280;11076;47.942;11.804;2023-01-27T21:35:20;94588.78;;;-1.80;100.00
21828;BME280;11076;47.942;11.804;2023-01-27T21:40:23;94595.69;;;-1.69;100.00
21828;BME280;11076;47.942;11.804;2023-01-27T21:45:25;94586.72;;;-1.86;100.00
21828;BME280;11076;47.942;11.804;2023-01-27T21:50:28;94590.19;;;-1.95;100.00
21828;BME280;11076;47.942;11.804;2023-01-27T21:55:30;94592.94;;;-1.87;100.00
21828;BME280;11076;47.942;11.804;2023-01-27T22:00:34;94591.97;;;-1.76;100.00
21828;BME280;11076;47.942;11.804;2023-01-27T22:05:37;94593.75;;;-1.96;100.00
21828;BME280;11076;47.942;11.804;2023-01-27T22:10:42;94594.75;;;-1.97;100.00
21828;BME280;11076;47.942;11.804;2023-01-27T22:15:49;94591.81;;;-1.94;100.00
21828;BME280;11076;47.942;11.804;2023-01-27T22:20:52;94580.41;;;-1.93;100.00
21828;BME280;11076;47.942;11.804;2023-01-27T22:25:54;94595.44;;;-1.95;100.00
21828;BME280;11076;47.942;11.804;2023-01-27T22:31:00;94584.78;;;-2.03;100.00
21828;BME280;11076;47.942;11.804;2023-01-27T22:36:04;94589.31;;;-2.05;100.00
21828;BME280;11076;47.942;11.804;2023-01-27T22:41:06;94587.41;;;-2.03;100.00
21828;BME280;11076;47.942;11.804;2023-01-27T22:46:09;94579.84;;;-1.96;100.00
21828;BME280;11076;47.942;11.804;2023-01-27T22:51:14;94578.31;;;-2.09;100.00
21828;BME280;11076;47.942;11.804;2023-01-27T22:56:17;94572.66;;;-2.14;100.00
21828;BME280;11076;47.942;11.804;2023-01-27T23:01:20;94580.78;;;-2.17;100.00
21828;BME280;11076;47.942;11.804;2023-01-27T23:06:22;94574.44;;;-2.14;100.00
21828;BME280;11076;47.942;11.804;2023-01-27T23:11:25;94583.13;;;-2.14;100.00
21828;BME280;11076;47.942;11.804;2023-01-27T23:16:30;94578.84;;;-2.25;100.00
21828;BME280;11076;47.942;11.804;2023-01-27T23:21:33;94578.31;;;-2.18;100.00
21828;BME280;11076;47.942;11.804;2023-01-27T23:26:36;94574.72;;;-2.08;100.00
21828;BME280;11076;47.942;11.804;2023-01-27T23:31:38;94576.09;;;-2.13;100.00
21828;BME280;11076;47.942;11.804;2023-01-27T23:36:41;94582.88;;;-2.11;100.00
21828;BME280;11076;47.942;11.804;2023-01-27T23:41:43;94588.25;;;-2.03;100.00
21828;BME280;11076;47.942;11.804;2023-01-27T23:46:46;94594.31;;;-2.02;100.00
21828;BME280;11076;47.942;11.804;2023-01-27T23:51:48;94606.19;;;-1.88;100.00
21828;BME280;11076;47.942;11.804;2023-01-27T23:56:51;94590.16;;;-1.75;100.00
